createdAt,value
2022-10-11T00:00:01.619Z,3675.0570000000002
2022-10-11T00:05:01.692Z,2434.734
2022-10-11T00:10:01.784Z,374.541
2022-10-11T00:15:01.597Z,565.066
2022-10-11T00:20:01.565Z,566.332
2022-10-11T00:25:01.650Z,172.966
2022-10-11T00:30:01.844Z,172.441
2022-10-11T00:35:01.594Z,171.733
2022-10-11T00:40:01.744Z,233.93200000000002
2022-10-11T00:45:01.601Z,288.478
2022-10-11T00:50:01.814Z,279.202
2022-10-11T00:55:01.639Z,223.288
2022-10-11T01:00:01.660Z,148.98
2022-10-11T01:05:25.573Z,150.347
2022-10-11T01:10:01.827Z,1804.957
2022-10-11T01:15:01.634Z,2690.0570000000002
2022-10-11T01:20:01.654Z,2596.025
2022-10-11T01:25:01.660Z,2783.797
2022-10-11T01:30:01.664Z,1525.554
2022-10-11T01:35:01.902Z,260.687
2022-10-11T01:40:01.815Z,237.702
2022-10-11T01:45:01.714Z,163.083
2022-10-11T01:50:01.693Z,173.91400000000002
2022-10-11T01:55:09.447Z,173.16
2022-10-11T02:00:01.674Z,172.586
2022-10-11T02:05:01.667Z,177.772
2022-10-11T02:10:01.675Z,451.838
2022-10-11T02:15:01.817Z,721.221
2022-10-11T02:20:01.669Z,514.581
2022-10-11T02:25:01.699Z,232.074
2022-10-11T02:30:01.798Z,147.331
2022-10-11T02:35:01.894Z,170.79500000000002
2022-10-11T02:40:01.910Z,172.026
2022-10-11T02:45:01.747Z,170.39600000000002
2022-10-11T02:50:01.742Z,169.326
2022-10-11T02:55:01.726Z,247.056
2022-10-11T03:00:01.915Z,284.12
2022-10-11T03:05:01.844Z,1650.655
2022-10-11T03:10:01.846Z,2701.781
2022-10-11T03:15:01.719Z,2539.15
2022-10-11T03:20:01.898Z,2515.148
2022-10-11T03:25:04.217Z,2319.936
2022-10-11T03:30:01.789Z,143.861
2022-10-11T03:35:01.743Z,153.565
2022-10-11T03:40:01.793Z,246.828
2022-10-11T03:45:01.976Z,270.757
2022-10-11T03:50:01.766Z,262.984
2022-10-11T03:55:01.808Z,188.655
2022-10-11T04:00:01.758Z,377.71
2022-10-11T04:05:01.953Z,610.097
2022-10-11T04:10:01.820Z,369.711
2022-10-11T04:15:01.812Z,226.321
2022-10-11T04:20:01.872Z,229.782
2022-10-11T04:25:01.907Z,619.424
2022-10-11T04:30:02.023Z,1057.722
2022-10-11T04:35:01.900Z,363.475
2022-10-11T04:40:01.816Z,280.825
2022-10-11T04:45:02.034Z,250.781
2022-10-11T04:50:01.966Z,274.908
2022-10-11T04:55:01.836Z,369.371
2022-10-11T05:00:01.826Z,693.793
2022-10-11T05:05:01.813Z,2551.525
2022-10-11T05:10:01.825Z,2509.462
2022-10-11T05:15:01.977Z,2516.021
2022-10-11T05:20:02.041Z,2977.708
2022-10-11T05:25:01.990Z,1322.659
2022-10-11T05:30:01.846Z,1941.628
2022-10-11T05:35:01.912Z,2410.135
2022-10-11T05:40:02.033Z,2383.7400000000002
2022-10-11T05:45:01.869Z,2361.209
2022-10-11T05:50:01.887Z,2121.4320000000002
2022-10-11T05:55:01.890Z,1490.683
2022-10-11T06:00:02.044Z,924.743
2022-10-11T06:05:01.859Z,790.4250000000001
2022-10-11T06:10:01.897Z,680.854
2022-10-11T06:15:01.869Z,224.29500000000002
2022-10-11T06:20:01.906Z,322.975
2022-10-11T06:25:02.075Z,233.61700000000002
2022-10-11T06:30:01.916Z,235.49800000000002
2022-10-11T06:35:01.921Z,260.347
2022-10-11T06:40:01.902Z,325.052
2022-10-11T06:45:02.100Z,481.409
2022-10-11T06:50:02.108Z,712.691
2022-10-11T06:55:01.958Z,350.822
2022-10-11T07:00:01.957Z,341.505
2022-10-11T07:05:02.049Z,223.291
2022-10-11T07:10:02.102Z,2326.882
2022-10-11T07:15:02.023Z,2336.276
2022-10-11T07:20:02.024Z,2741.166
2022-10-11T07:25:02.010Z,2930.413
2022-10-11T07:30:02.146Z,271.50100000000003
2022-10-11T07:35:01.950Z,278.833
2022-10-11T07:40:01.984Z,1266.929
2022-10-11T07:45:02.021Z,1286.848
2022-10-11T07:50:02.157Z,257.404
2022-10-11T07:55:02.268Z,605.742
2022-10-11T08:00:02.082Z,539.852
2022-10-11T08:05:01.956Z,290.529
2022-10-11T08:10:02.017Z,377.96
2022-10-11T08:15:02.130Z,390.723
2022-10-11T08:20:02.015Z,374.021
2022-10-11T08:25:02.043Z,277.54
2022-10-11T08:30:02.052Z,367.777
2022-10-11T08:35:02.084Z,694.452
2022-10-11T08:40:02.360Z,529.94
2022-10-11T08:45:11.315Z,265.467
2022-10-11T08:50:02.044Z,309.528
2022-10-11T08:55:02.027Z,393.176
2022-10-11T09:00:02.216Z,374.28700000000003
2022-10-11T09:05:02.114Z,288.216
2022-10-11T09:10:02.026Z,195.09300000000002
2022-10-11T09:15:02.042Z,193.266
2022-10-11T09:20:02.101Z,193.33100000000002
2022-10-11T09:25:02.257Z,216.77
2022-10-11T09:30:02.074Z,596.664
2022-10-11T09:35:02.212Z,626.916
2022-10-11T09:40:02.053Z,286.746
2022-10-11T09:45:02.271Z,301.923
2022-10-11T09:50:02.075Z,277.94100000000003
2022-10-11T09:55:02.142Z,198.1
2022-10-11T10:00:02.101Z,190.397
2022-10-11T10:05:02.199Z,161.399
2022-10-11T10:10:02.080Z,167.27
2022-10-11T10:15:02.089Z,175.796
2022-10-11T10:20:02.143Z,240.816
2022-10-11T10:25:02.141Z,370.14
2022-10-11T10:30:02.510Z,689.501
2022-10-11T10:35:02.109Z,585.739
2022-10-11T10:40:02.181Z,205.65200000000002
2022-10-11T10:45:02.180Z,208.09300000000002
2022-10-11T10:50:02.418Z,494.00600000000003
2022-10-11T10:55:02.132Z,189.064
2022-10-11T11:00:02.154Z,191.495
2022-10-11T11:05:02.153Z,270.895
2022-10-11T11:10:02.317Z,316.403
2022-10-11T11:15:02.247Z,310.972
2022-10-11T11:20:02.199Z,288.522
2022-10-11T11:25:02.188Z,349.079
2022-10-11T11:30:02.303Z,591.3820000000001
2022-10-11T11:35:02.339Z,373.01
2022-10-11T11:40:02.335Z,169.679
2022-10-11T11:45:02.165Z,173.71800000000002
2022-10-11T11:50:02.276Z,193.839
2022-10-11T11:55:04.065Z,294.789
2022-10-11T12:00:02.225Z,286.339
2022-10-11T12:05:02.161Z,283.424
2022-10-11T12:20:02.404Z,209.85500000000002
2022-10-11T12:25:02.283Z,228.334
2022-10-11T12:30:02.376Z,206.802
2022-10-11T12:35:02.209Z,201.791
2022-10-11T12:40:02.262Z,319.516
2022-10-11T12:45:02.224Z,311.056
2022-10-11T12:50:02.466Z,306.468
2022-10-11T12:55:02.234Z,216.19
2022-10-11T13:00:02.239Z,198.55700000000002
2022-10-11T13:05:02.291Z,184.80700000000002
2022-10-11T13:10:02.379Z,164.716
2022-10-11T13:15:02.283Z,162.731
2022-10-11T13:20:02.435Z,175.374
2022-10-11T13:25:02.256Z,292.425
2022-10-11T13:30:02.438Z,320.247
2022-10-11T13:35:02.262Z,336.81600000000003
2022-10-11T13:40:02.297Z,242.415
2022-10-11T13:45:02.339Z,230.948
2022-10-11T13:50:02.698Z,264.312
2022-10-11T13:55:02.261Z,252.984
2022-10-11T14:00:02.275Z,291.186
2022-10-11T14:05:02.286Z,585.799
2022-10-11T14:10:02.529Z,835.405
2022-10-11T14:15:02.321Z,982.488
2022-10-11T14:20:06.152Z,363.396
2022-10-11T14:25:02.295Z,289.951
2022-10-11T14:30:25.423Z,367.072
2022-10-11T14:35:02.399Z,349.895
2022-10-11T14:40:02.322Z,1649.0910000000001
2022-10-11T14:45:02.348Z,269.171
2022-10-11T14:50:02.548Z,300.786
2022-10-11T14:55:02.454Z,372.15500000000003
2022-10-11T15:00:02.377Z,355.822
2022-10-11T15:05:02.342Z,349.654
2022-10-11T15:10:02.602Z,487.712
2022-10-11T15:15:02.330Z,242.17600000000002
2022-10-11T15:20:02.350Z,240.554
2022-10-11T15:25:02.430Z,601.594
2022-10-11T15:30:02.477Z,1032.678
2022-10-11T15:35:02.403Z,2368.822
2022-10-11T15:40:02.348Z,3311.494
2022-10-11T15:45:02.488Z,1929.728
2022-10-11T15:50:02.438Z,935.655
2022-10-11T15:55:02.536Z,975.201
2022-10-11T16:00:02.467Z,361.922
2022-10-11T16:05:02.370Z,357.056
2022-10-11T16:10:02.414Z,245.622
2022-10-11T16:15:02.601Z,2695.844
2022-10-11T16:20:02.454Z,3041.213
2022-10-11T16:25:02.443Z,1861.464
2022-10-11T16:30:02.448Z,941.0020000000001
2022-10-11T16:35:02.482Z,1258.671
2022-10-11T16:40:02.619Z,1705.586
2022-10-11T16:45:02.455Z,741.535
2022-10-11T16:50:02.423Z,391.068
2022-10-11T16:55:02.546Z,403.487
2022-10-11T17:00:02.639Z,376.82300000000004
2022-10-11T17:05:02.493Z,397.86400000000003
2022-10-11T17:10:02.492Z,508.958
2022-10-11T17:15:02.444Z,749.019
2022-10-11T17:20:02.507Z,559.5550000000001
2022-10-11T17:25:02.676Z,584.319
2022-10-11T17:30:02.455Z,1032.58
2022-10-11T17:35:02.498Z,1741.589
2022-10-11T17:40:02.474Z,4105.3330000000005
2022-10-11T17:45:02.668Z,5517.32
2022-10-11T17:50:02.509Z,5078.055
2022-10-11T17:55:02.503Z,2513.684
2022-10-11T18:00:02.575Z,1279.78
2022-10-11T18:05:02.679Z,892.255
2022-10-11T18:10:02.802Z,1152.992
2022-10-11T18:15:02.555Z,833.955
2022-10-11T18:20:02.522Z,823.5210000000001
2022-10-11T18:25:02.650Z,2712.6130000000003
2022-10-11T18:30:02.564Z,3349.387
2022-10-11T18:35:02.525Z,1382.386
2022-10-11T18:40:02.527Z,902.403
2022-10-11T18:45:02.605Z,919.124
2022-10-11T18:50:02.736Z,931.787
2022-10-11T18:55:02.522Z,805.237
2022-10-11T19:00:11.622Z,809.041
2022-10-11T19:05:02.640Z,783.424
2022-10-11T19:15:12.331Z,771.63
2022-10-11T19:20:00.410Z,830.101
2022-10-11T19:25:00.427Z,897.559
2022-10-11T19:30:00.513Z,873.4490000000001
2022-10-11T19:35:00.596Z,964.213
2022-10-11T19:40:00.480Z,786.799
2022-10-11T19:45:00.415Z,738.072
2022-10-11T19:50:00.440Z,867.234
2022-10-11T19:55:00.696Z,2219.614
2022-10-11T20:00:00.624Z,2796.983
2022-10-11T20:05:00.500Z,5641.915
2022-10-11T20:10:00.546Z,10874.017
2022-10-11T20:15:00.457Z,9935.371000000001
2022-10-11T20:20:00.514Z,8215.776
2022-10-11T20:25:00.624Z,8156.385
2022-10-11T20:30:00.472Z,8279.895
2022-10-11T20:35:00.467Z,8607.505000000001
2022-10-11T20:40:00.522Z,9923.982
2022-10-11T20:45:00.541Z,9881.668
2022-10-11T20:50:00.640Z,9410.456
2022-10-11T20:55:00.687Z,7867.773
2022-10-11T21:00:00.682Z,7861.201
2022-10-11T21:05:00.522Z,7846.360000000001
2022-10-11T21:10:00.507Z,7724.251
2022-10-11T21:15:00.645Z,7720.217000000001
2022-10-11T21:20:00.674Z,7732.817
2022-10-11T21:25:00.532Z,7740.609
2022-10-11T21:30:00.500Z,7741.871
2022-10-11T21:35:00.560Z,7772.059
2022-10-11T21:40:00.624Z,7911.727
2022-10-11T21:45:00.684Z,7897.059
2022-10-11T21:50:00.511Z,7775.54
2022-10-11T21:55:00.484Z,6940.941
2022-10-11T22:00:00.502Z,6176.313
2022-10-11T22:05:00.614Z,7330.525000000001
2022-10-11T22:10:00.713Z,7181.860000000001
2022-10-11T22:15:00.514Z,6666.943
2022-10-11T22:20:00.551Z,6675.342000000001
2022-10-11T22:25:00.611Z,4877.650000000001
2022-10-11T22:30:00.626Z,3539.501
2022-10-11T22:35:00.733Z,456.947
2022-10-11T22:40:00.621Z,184.33
2022-10-11T22:45:00.565Z,175.752
2022-10-11T22:50:00.575Z,177.92000000000002
2022-10-11T22:55:00.699Z,180.174
2022-10-11T23:00:00.780Z,163.548
2022-10-11T23:05:00.645Z,196.586
2022-10-11T23:10:00.624Z,270.86400000000003
2022-10-11T23:15:00.609Z,263.343
2022-10-11T23:20:00.697Z,240.865
2022-10-11T23:25:00.815Z,150.483
2022-10-11T23:30:00.679Z,164.322
2022-10-11T23:35:00.630Z,174.44400000000002
2022-10-11T23:40:00.704Z,173.836
2022-10-11T23:45:00.738Z,174.08700000000002
2022-10-11T23:50:00.792Z,237.149
2022-10-11T23:55:00.627Z,293.044
